Wetterdaten Neuhaus/Waldnaab

^

Wetter Neuhaus/WN - aktuelle & historische Daten
 
tägl. Zusammenfassung für den 22. Oktober 2018
« minus 1 Tag
plus 1 Tag »
tägl. wöchentl. monatl. jährl.
  Aktuell: Höchstwert: Tiefstwert: Durchschnitt:
Temperatur: 13.9 °C 14.9 °C -2.9 °C 1.7 °C
Taupunkt: 8.3 °C 9.3 °C -3.0 °C 0.5 °C
Luftfeuchte: 69 % 99 % 64 % 93 %
Windgeschwindigkeit: 0.0 km/h 0.0 km/h 0.0 km/h 0 km/h
Windböe: 0.0 km/h 0.0 km/h - -
Wind:ruhig - - Nord
Druck: 1027.3 hPa 1028.7 hPa 1026.6 hPa -
Niederschlag: 0.0 mm      
Historical Graphs
 
 














tabellarische Daten für den 22 . Oktober 2018
Zeit Temperatur Taupunkt Luftdruck Wind Windgeschwindigkeit Windböe Luftfeuchte Regen (pro h) Solar Bedingungen
00:04 0.6 °C 0.5 °C 1028.0 hPa Ruhig     99 % 0.0 mm 0.00 W/m2
00:09 0.5 °C 0.4 °C 1028.0 hPa Ruhig     99 % 0.0 mm 0.00 W/m2
00:14 0.4 °C 0.3 °C 1028.3 hPa Ruhig     99 % 0.0 mm 0.00 W/m2
00:19 0.3 °C 0.2 °C 1028.0 hPa Ruhig     99 % 0.0 mm 0.00 W/m2
00:24 0.2 °C 0.1 °C 1028.3 hPa Ruhig     99 % 0.0 mm 0.00 W/m2
00:29 0.1 °C 0.0 °C 1028.3 hPa Ruhig     99 % 0.0 mm 0.00 W/m2
00:34 0.0 °C -0.1 °C 1028.0 hPa Ruhig     99 % 0.0 mm 0.00 W/m2
00:39 -0.1 °C -0.2 °C 1028.3 hPa Ruhig     99 % 0.0 mm 0.00 W/m2
00:44 -0.3 °C -0.4 °C 1028.0 hPa Ruhig     99 % 0.0 mm 0.00 W/m2
00:49 -0.5 °C -0.6 °C 1028.0 hPa Ruhig     99 % 0.0 mm 0.00 W/m2
00:54 -0.6 °C -0.7 °C 1028.0 hPa Ruhig     99 % 0.0 mm 0.00 W/m2
00:59 -0.7 °C -0.8 °C 1028.0 hPa Ruhig     99 % 0.0 mm 0.00 W/m2
01:04 -0.7 °C -0.8 °C 1027.7 hPa Ruhig     99 % 0.0 mm 0.00 W/m2
01:09 -0.8 °C -0.9 °C 1027.7 hPa Ruhig     99 % 0.0 mm 0.00 W/m2
01:14 -0.8 °C -0.9 °C 1027.7 hPa Ruhig     99 % 0.0 mm 0.00 W/m2
01:19 -0.9 °C -1.0 °C 1027.7 hPa Ruhig     99 % 0.0 mm 0.00 W/m2
01:24 -0.9 °C -1.0 °C 1027.7 hPa Ruhig     99 % 0.0 mm 0.00 W/m2
01:29 -1.0 °C -1.1 °C 1027.7 hPa Ruhig     99 % 0.0 mm 0.00 W/m2
01:34 -1.1 °C -1.2 °C 1027.7 hPa Ruhig     99 % 0.0 mm 0.00 W/m2
01:39 -1.2 °C -1.3 °C 1027.7 hPa Ruhig     99 % 0.0 mm 0.00 W/m2
01:44 -1.2 °C -1.3 °C 1027.7 hPa Ruhig     99 % 0.0 mm 0.00 W/m2
01:50 -1.4 °C -1.5 °C 1027.7 hPa Ruhig     99 % 0.0 mm 0.00 W/m2
01:54 -1.4 °C -1.5 °C 1027.7 hPa Ruhig     99 % 0.0 mm 0.00 W/m2
01:59 -1.5 °C -1.6 °C 1027.7 hPa Ruhig     99 % 0.0 mm 0.00 W/m2
02:04 -1.5 °C -1.6 °C 1027.7 hPa Ruhig     99 % 0.0 mm 0.00 W/m2
02:09 -1.6 °C -1.7 °C 1027.7 hPa Ruhig     99 % 0.0 mm 0.00 W/m2
02:14 -1.6 °C -1.7 °C 1027.7 hPa Ruhig     99 % 0.0 mm 0.00 W/m2
02:19 -1.6 °C -1.7 °C 1027.7 hPa Ruhig     99 % 0.0 mm 0.00 W/m2
02:24 -1.5 °C -1.6 °C 1027.7 hPa Ruhig     99 % 0.0 mm 0.00 W/m2
02:29 -1.4 °C -1.5 °C 1027.7 hPa Ruhig     99 % 0.0 mm 0.00 W/m2
02:34 -1.3 °C -1.4 °C 1027.7 hPa Ruhig     99 % 0.0 mm 0.00 W/m2
02:39 -1.3 °C -1.4 °C 1027.7 hPa Ruhig     99 % 0.0 mm 0.00 W/m2
02:44 -1.2 °C -1.3 °C 1027.7 hPa Ruhig     99 % 0.0 mm 0.00 W/m2
02:49 -1.1 °C -1.2 °C 1027.7 hPa Ruhig     99 % 0.0 mm 0.00 W/m2
02:54 -1.1 °C -1.2 °C 1027.7 hPa Ruhig     99 % 0.0 mm 0.00 W/m2
02:59 -1.0 °C -1.1 °C 1027.7 hPa Ruhig     99 % 0.0 mm 0.00 W/m2
03:04 -1.0 °C -1.1 °C 1027.7 hPa Ruhig     99 % 0.0 mm 0.00 W/m2
03:09 -1.0 °C -1.1 °C 1027.3 hPa Ruhig     99 % 0.0 mm 0.00 W/m2
03:14 -1.0 °C -1.1 °C 1027.7 hPa Ruhig     99 % 0.0 mm 0.00 W/m2
03:19 -1.0 °C -1.1 °C 1027.3 hPa Ruhig     99 % 0.0 mm 0.00 W/m2
03:24 -1.1 °C -1.2 °C 1027.7 hPa Ruhig     99 % 0.0 mm 0.00 W/m2
03:29 -1.1 °C -1.2 °C 1027.3 hPa Ruhig     99 % 0.0 mm 0.00 W/m2
03:34 -1.1 °C -1.2 °C 1027.3 hPa Ruhig     99 % 0.0 mm 0.00 W/m2
03:39 -1.3 °C -1.4 °C 1027.3 hPa Ruhig     99 % 0.0 mm 0.00 W/m2
03:44 -1.4 °C -1.5 °C 1027.3 hPa Ruhig     99 % 0.0 mm 0.00 W/m2
03:49 -1.5 °C -1.6 °C 1027.3 hPa Ruhig     99 % 0.0 mm 0.00 W/m2
03:54 -1.7 °C -1.8 °C 1027.3 hPa Ruhig     99 % 0.0 mm 0.00 W/m2
03:59 -1.8 °C -1.9 °C 1027.3 hPa Ruhig     99 % 0.0 mm 0.00 W/m2
04:04 -1.8 °C -1.9 °C 1027.0 hPa Ruhig     99 % 0.0 mm 0.00 W/m2
04:09 -1.9 °C -2.0 °C 1027.0 hPa Ruhig     99 % 0.0 mm 0.00 W/m2
04:14 -2.0 °C -2.1 °C 1027.3 hPa Ruhig     99 % 0.0 mm 0.00 W/m2
04:19 -2.0 °C -2.1 °C 1027.3 hPa Ruhig     99 % 0.0 mm 0.00 W/m2
04:24 -2.1 °C -2.2 °C 1027.0 hPa Ruhig     99 % 0.0 mm 0.00 W/m2
04:29 -2.1 °C -2.2 °C 1027.0 hPa Ruhig     99 % 0.0 mm 0.00 W/m2
04:34 -2.2 °C -2.3 °C 1027.0 hPa Ruhig     99 % 0.0 mm 0.00 W/m2
04:39 -2.2 °C -2.3 °C 1027.0 hPa Ruhig     99 % 0.0 mm 0.00 W/m2
04:44 -2.2 °C -2.3 °C 1027.0 hPa Ruhig     99 % 0.0 mm 0.00 W/m2
04:49 -2.3 °C -2.4 °C 1027.0 hPa Ruhig     99 % 0.0 mm 0.00 W/m2
04:54 -2.3 °C -2.4 °C 1027.3 hPa Ruhig     99 % 0.0 mm 0.00 W/m2
04:59 -2.4 °C -2.5 °C 1027.0 hPa Ruhig     99 % 0.0 mm 0.00 W/m2
05:04 -2.4 °C -2.5 °C 1027.0 hPa Ruhig     99 % 0.0 mm 0.00 W/m2
05:09 -2.5 °C -2.6 °C 1027.0 hPa Ruhig     99 % 0.0 mm 0.00 W/m2
05:14 -2.6 °C -2.7 °C 1027.0 hPa Ruhig     99 % 0.0 mm 0.00 W/m2
05:19 -2.6 °C -2.7 °C 1027.0 hPa Ruhig     99 % 0.0 mm 0.00 W/m2
05:24 -2.7 °C -2.8 °C 1027.0 hPa Ruhig     99 % 0.0 mm 0.00 W/m2
05:29 -2.7 °C -2.8 °C 1027.3 hPa Ruhig     99 % 0.0 mm 0.00 W/m2
05:34 -2.7 °C -2.8 °C 1026.6 hPa Ruhig     99 % 0.0 mm 0.00 W/m2
05:39 -2.8 °C -2.9 °C 1027.3 hPa Ruhig     99 % 0.0 mm 0.00 W/m2
05:44 -2.8 °C -2.9 °C 1027.0 hPa Ruhig     99 % 0.0 mm 0.00 W/m2
05:49 -2.8 °C -2.9 °C 1027.0 hPa Ruhig     99 % 0.0 mm 0.00 W/m2
05:54 -2.9 °C -3.0 °C 1027.3 hPa Ruhig     99 % 0.0 mm 0.00 W/m2
05:59 -2.9 °C -3.0 °C 1027.3 hPa Ruhig     99 % 0.0 mm 0.00 W/m2
06:04 -2.9 °C -3.0 °C 1027.3 hPa Ruhig     99 % 0.0 mm 0.00 W/m2
06:09 -2.8 °C -2.9 °C 1027.3 hPa Ruhig     99 % 0.0 mm 0.00 W/m2
06:14 -2.8 °C -2.9 °C 1027.0 hPa Ruhig     99 % 0.0 mm 0.00 W/m2
06:19 -2.8 °C -2.9 °C 1027.0 hPa Ruhig     99 % 0.0 mm 0.00 W/m2
06:24 -2.8 °C -2.9 °C 1027.0 hPa Ruhig     99 % 0.0 mm 0.00 W/m2
06:29 -2.9 °C -3.0 °C 1027.3 hPa Ruhig     99 % 0.0 mm 0.00 W/m2
06:34 -2.9 °C -3.0 °C 1027.3 hPa Ruhig     99 % 0.0 mm 0.00 W/m2
06:39 -2.9 °C -3.0 °C 1027.3 hPa Ruhig     99 % 0.0 mm 0.00 W/m2
06:44 -2.8 °C -2.9 °C 1027.3 hPa Ruhig     99 % 0.0 mm 0.00 W/m2
06:49 -2.7 °C -2.8 °C 1027.3 hPa Ruhig     99 % 0.0 mm 0.00 W/m2
06:54 -2.6 °C -2.7 °C 1027.3 hPa Ruhig     99 % 0.0 mm 0.00 W/m2
06:59 -2.5 °C -2.6 °C 1027.3 hPa Ruhig     99 % 0.0 mm 0.00 W/m2
07:04 -2.4 °C -2.5 °C 1027.3 hPa Ruhig     99 % 0.0 mm 0.00 W/m2
07:09 -2.2 °C -2.3 °C 1027.3 hPa Ruhig     99 % 0.0 mm 0.00 W/m2
07:14 -2.2 °C -2.3 °C 1027.7 hPa Ruhig     99 % 0.0 mm 0.00 W/m2
07:19 -2.3 °C -2.4 °C 1027.7 hPa Ruhig     99 % 0.0 mm 0.00 W/m2
07:24 -2.4 °C -2.5 °C 1027.7 hPa Ruhig     99 % 0.0 mm 0.00 W/m2
07:29 -2.4 °C -2.5 °C 1027.7 hPa Ruhig     99 % 0.0 mm 0.00 W/m2
07:34 -2.5 °C -2.6 °C 1027.7 hPa Ruhig     99 % 0.0 mm 0.00 W/m2
07:39 -2.6 °C -2.7 °C 1028.0 hPa Ruhig     99 % 0.0 mm 0.00 W/m2
07:44 -2.7 °C -2.8 °C 1027.7 hPa Ruhig     99 % 0.0 mm 1.02 W/m2
07:49 -2.7 °C -2.8 °C 1027.7 hPa Ruhig     99 % 0.0 mm 2.61 W/m2
07:54 -2.7 °C -2.8 °C 1027.7 hPa Ruhig     99 % 0.0 mm 4.61 W/m2
07:59 -2.7 °C -2.8 °C 1027.7 hPa Ruhig     99 % 0.0 mm 6.11 W/m2
08:04 -2.6 °C -2.7 °C 1028.0 hPa Ruhig     99 % 0.0 mm 8.63 W/m2
08:09 -2.6 °C -2.7 °C 1027.7 hPa Ruhig     99 % 0.0 mm 10.54 W/m2
08:14 -2.6 °C -2.7 °C 1028.0 hPa Ruhig     99 % 0.0 mm 12.50 W/m2
08:19 -2.6 °C -2.7 °C 1028.0 hPa Ruhig     99 % 0.0 mm 12.75 W/m2
08:24 -2.7 °C -2.8 °C 1028.0 hPa Ruhig     99 % 0.0 mm 16.06 W/m2
08:29 -2.7 °C -2.8 °C 1028.0 hPa Ruhig     99 % 0.0 mm 17.49 W/m2
08:34 -2.8 °C -2.9 °C 1028.0 hPa Ruhig     99 % 0.0 mm 18.76 W/m2
08:39 -2.8 °C -2.9 °C 1028.0 hPa Ruhig     99 % 0.0 mm 20.26 W/m2
08:44 -2.7 °C -2.8 °C 1028.0 hPa Ruhig     99 % 0.0 mm 21.57 W/m2
08:49 -2.6 °C -2.7 °C 1028.3 hPa Ruhig     99 % 0.0 mm 22.64 W/m2
08:54 -2.5 °C -2.6 °C 1028.3 hPa Ruhig     99 % 0.0 mm 23.59 W/m2
08:59 -2.3 °C -2.4 °C 1028.3 hPa Ruhig     99 % 0.0 mm 24.34 W/m2
09:04 -2.2 °C -2.3 °C 1028.3 hPa Ruhig     99 % 0.0 mm 25.87 W/m2
09:08 -2.0 °C -2.1 °C 1028.0 hPa Ruhig     99 % 0.0 mm 26.51 W/m2
09:14 -1.7 °C -1.8 °C 1028.3 hPa Ruhig     99 % 0.0 mm 27.71 W/m2
09:19 -1.5 °C -1.6 °C 1028.3 hPa Ruhig     99 % 0.0 mm 28.57 W/m2
09:24 -1.3 °C -1.4 °C 1028.3 hPa Ruhig     99 % 0.0 mm 29.31 W/m2
09:29 -1.1 °C -1.2 °C 1028.3 hPa Ruhig     99 % 0.0 mm 30.13 W/m2
09:34 -0.9 °C -1.0 °C 1028.3 hPa Ruhig     99 % 0.0 mm 30.73 W/m2
09:39 -0.8 °C -0.9 °C 1028.3 hPa Ruhig     99 % 0.0 mm 31.48 W/m2
09:44 -0.6 °C -0.7 °C 1028.7 hPa Ruhig     99 % 0.0 mm 32.15 W/m2
09:49 -0.4 °C -0.5 °C 1028.3 hPa Ruhig     99 % 0.0 mm 33.11 W/m2
09:54 -0.2 °C -0.3 °C 1028.3 hPa Ruhig     99 % 0.0 mm 33.82 W/m2
09:59 0.0 °C -0.1 °C 1028.3 hPa Ruhig     99 % 0.0 mm 34.89 W/m2
10:04 0.2 °C 0.1 °C 1028.3 hPa Ruhig     99 % 0.0 mm 36.88 W/m2
10:09 0.6 °C 0.5 °C 1028.3 hPa Ruhig     99 % 0.0 mm 36.88 W/m2
10:14 0.9 °C 0.8 °C 1028.3 hPa Ruhig     99 % 0.0 mm 43.16 W/m2
10:19 1.2 °C 1.1 °C 1028.3 hPa Ruhig     99 % 0.0 mm 41.07 W/m2
10:24 1.6 °C 1.5 °C 1028.3 hPa Ruhig     99 % 0.0 mm 42.60 W/m2
10:29 2.1 °C 2.0 °C 1028.3 hPa Ruhig     99 % 0.0 mm 43.66 W/m2
10:34 2.7 °C 1.8 °C 1028.0 hPa Ruhig     94 % 0.0 mm 46.11 W/m2
10:39 3.4 °C 2.2 °C 1028.3 hPa Ruhig     92 % 0.0 mm 48.63 W/m2
10:43 4.0 °C 2.5 °C 1028.3 hPa Ruhig     90 % 0.0 mm 51.58 W/m2
10:49 4.9 °C 3.6 °C 1028.3 hPa Ruhig     91 % 0.0 mm 56.73 W/m2
10:54 5.7 °C 3.2 °C 1028.3 hPa Ruhig     84 % 0.0 mm 62.02 W/m2
10:59 6.7 °C 3.7 °C 1028.3 hPa Ruhig     81 % 0.0 mm 68.42 W/m2
11:04 7.4 °C 4.4 °C 1028.0 hPa Ruhig     81 % 0.0 mm 75.20 W/m2
11:09 8.1 °C 4.7 °C 1028.0 hPa Ruhig     79 % 0.0 mm 81.75 W/m2
11:14 8.8 °C 5.0 °C 1028.0 hPa Ruhig     77 % 0.0 mm 87.57 W/m2
11:19 9.6 °C 5.4 °C 1027.7 hPa Ruhig     75 % 0.0 mm 94.02 W/m2
11:24 10.2 °C 5.8 °C 1028.0 hPa Ruhig     74 % 0.0 mm 100.68 W/m2
11:29 10.6 °C 6.0 °C 1028.0 hPa Ruhig     73 % 0.0 mm 108.45 W/m2
11:34 10.9 °C 6.3 °C 1028.0 hPa Ruhig     73 % 0.0 mm 115.86 W/m2
11:39 11.2 °C 6.8 °C 1028.0 hPa Ruhig     74 % 0.0 mm 124.97 W/m2
11:44 11.3 °C 7.0 °C 1028.0 hPa Ruhig     75 % 0.0 mm 130.08 W/m2
11:49 11.3 °C 7.2 °C 1028.0 hPa Ruhig     76 % 0.0 mm 92.56 W/m2
11:54 11.3 °C 7.0 °C 1027.7 hPa Ruhig     75 % 0.0 mm 67.71 W/m2
11:59 11.4 °C 7.1 °C 1028.0 hPa Ruhig     75 % 0.0 mm 68.06 W/m2
12:04 11.6 °C 6.9 °C 1027.7 hPa Ruhig     73 % 0.0 mm 69.16 W/m2
12:09 11.7 °C 7.4 °C 1027.7 hPa Ruhig     75 % 0.0 mm 69.87 W/m2
12:14 11.9 °C 7.8 °C 1027.7 hPa Ruhig     76 % 0.0 mm 85.73 W/m2
12:19 12.2 °C 7.5 °C 1027.7 hPa Ruhig     73 % 0.0 mm 91.86 W/m2
12:24 12.4 °C 7.9 °C 1027.3 hPa Ruhig     74 % 0.0 mm 79.07 W/m2
12:29 12.5 °C 7.8 °C 1027.3 hPa Ruhig     73 % 0.0 mm 226.22 W/m2
12:34 12.6 °C 7.7 °C 1027.3 hPa Ruhig     72 % 0.0 mm 241.49 W/m2
12:39 12.7 °C 7.8 °C 1027.3 hPa Ruhig     72 % 0.0 mm 256.91 W/m2
12:44 13.0 °C 7.9 °C 1027.3 hPa Ruhig     71 % 0.0 mm 108.80 W/m2
12:49 13.1 °C 7.6 °C 1027.3 hPa Ruhig     69 % 0.0 mm 287.23 W/m2
12:54 13.3 °C 8.0 °C 1027.3 hPa Ruhig     70 % 0.0 mm 305.59 W/m2
12:59 13.5 °C 7.7 °C 1027.3 hPa Ruhig     68 % 0.0 mm 323.93 W/m2
13:04 13.8 °C 7.1 °C 1027.3 hPa Ruhig     64 % 0.0 mm 348.43 W/m2
13:09 14.1 °C 7.4 °C 1027.3 hPa Ruhig     64 % 0.0 mm 385.26 W/m2
13:14 14.4 °C 8.6 °C 1027.3 hPa Ruhig     68 % 0.0 mm 474.42 W/m2
13:19 14.6 °C 8.1 °C 1027.3 hPa Ruhig     65 % 0.0 mm 449.04 W/m2
13:24 14.8 °C 8.5 °C 1027.3 hPa Ruhig     66 % 0.0 mm 277.15 W/m2
13:29 14.9 °C 8.8 °C 1027.3 hPa Ruhig     67 % 0.0 mm 181.72 W/m2
13:34 14.9 °C 9.3 °C 1027.3 hPa Ruhig     69 % 0.0 mm 152.16 W/m2
13:39 14.7 °C 8.9 °C 1027.3 hPa Ruhig     68 % 0.0 mm 146.61 W/m2
13:44 14.6 °C 8.8 °C 1027.3 hPa Ruhig     68 % 0.0 mm 158.32 W/m2
13:49 14.4 °C 9.0 °C 1027.3 hPa Ruhig     70 % 0.0 mm 156.92 W/m2
13:54 14.1 °C 8.7 °C 1027.3 hPa Ruhig     70 % 0.0 mm 147.64 W/m2
13:59 14.0 °C 8.6 °C 1027.0 hPa Ruhig     70 % 0.0 mm 132.71 W/m2
14:04 13.9 °C 8.3 °C 1027.3 hPa Ruhig     69 % 0.0 mm 138.99 W/m2
Neuhaus/WN - Oberpfalz
Compliments of Weather Underground - 768 kb